Weather History for Beatrice, NE

Change the Weather History Date:

Thursday, January 3, 2013

  Actual Average Record
Temperature  
Mean Temperature 20 °F -  
Max Temperature 31 °F 29 °F 58 °F (1955)
Min Temperature 10 °F 9 °F -8 °F (1968)
Degree Days  
Heating Degree Days 44    
Moisture  
Dew Point 18 °F    
Average Humidity 77    
Maximum Humidity 87    
Minimum Humidity 62    
Precipitation  
Precipitation 0.00 in - - ()
Sea Level Pressure  
Sea Level Pressure 30.34 in    
Wind  
Wind Speed 6 mph (NW)    
Max Wind Speed 9 mph    
Max Gust Speed -    
Visibility 10 miles    
Events      
Averages and records for this station are not official NWS values.
T = Trace of Precipitation, MM = Missing Value Source: NWS Daily Summary

Daily Weather History Graph

Daily Weather History Graph

Search for Another Location

Airport:

Trip Planner

Search our weather history database for the weather conditions in past years. The results will help you decide how hot, cold, wet, or windy it might be!

Date:

Astronomy

Jan. 03, 2013 Rise Set
Actual Time 7:49 AM CST 5:13 PM CST
Civil Twilight 7:19 AM CST 5:44 PM CST
Nautical Twilight 6:45 AM CST 6:18 PM CST
Astronomical Twilight 6:12 AM CST 6:51 PM CST
Moon 11:51 PM CST (1/3) 11:01 AM CST (1/3)
Length of Visible Light 10h 24m
Length of Day
9h 23m
Waning Gibbous, 65% of the Moon is Illuminated
Jan 3
Waning Gibbous
Jan 4
Last Quarter
Jan 11
New
Jan 18
First Quarter
Jan 26
Full

Hourly Weather History & Observations

Time (CST) Temp. Windchill Dew Point Humidity Pressure Visibility Wind Dir Wind Speed Gust Speed Precip Events Conditions
12:15 AM 30.7 °F 24.9 °F 24.4 °F 77% 30.24 in 10.0 mi West 5.8 mph - N/A   Mostly Cloudy
12:35 AM 28.6 °F 20.7 °F 23.7 °F 82% 30.24 in 10.0 mi West 8.1 mph - N/A   Scattered Clouds
12:55 AM 29.3 °F 22.3 °F 23.9 °F 80% 30.24 in 10.0 mi WNW 6.9 mph - N/A   Overcast
1:15 AM 29.5 °F 23.4 °F 23.7 °F 79% 30.24 in 10.0 mi WNW 5.8 mph - N/A   Overcast
1:35 AM 29.3 °F 22.3 °F 23.7 °F 80% 30.25 in 10.0 mi WNW 6.9 mph - N/A   Overcast
1:55 AM 29.8 °F 21.5 °F 23.9 °F 79% 30.26 in 10.0 mi WNW 9.2 mph - N/A   Overcast
2:15 AM 31.1 °F 23.7 °F 23.9 °F 75% 30.27 in 10.0 mi WNW 8.1 mph - N/A   Overcast
2:35 AM 31.5 °F 23.5 °F 24.3 °F 75% 30.28 in 10.0 mi NW 9.2 mph - N/A   Overcast
2:55 AM 30.2 °F 24.3 °F 23.9 °F 77% 30.28 in 10.0 mi WNW 5.8 mph - N/A   Overcast
3:15 AM 29.7 °F 22.8 °F 23.9 °F 79% 30.29 in 10.0 mi NW 6.9 mph - N/A   Overcast
3:35 AM 29.7 °F 21.3 °F 23.5 °F 78% 30.29 in 10.0 mi NW 9.2 mph - N/A   Overcast
3:55 AM 27.7 °F 19.6 °F 21.7 °F 78% 30.29 in 10.0 mi WNW 8.1 mph - N/A   Mostly Cloudy
4:15 AM 28.8 °F 20.2 °F 22.1 °F 76% 30.30 in 10.0 mi WNW 9.2 mph - N/A   Mostly Cloudy
4:35 AM 28.0 °F 19.3 °F 21.2 °F 76% 30.29 in 10.0 mi WNW 9.2 mph - N/A   Overcast
4:55 AM 28.0 °F 20.8 °F 21.6 °F 77% 30.30 in 10.0 mi West 6.9 mph - N/A   Overcast
5:15 AM 27.1 °F 18.9 °F 20.8 °F 77% 30.30 in 10.0 mi WNW 8.1 mph - N/A   Mostly Cloudy
5:35 AM 24.3 °F 17.3 °F 18.7 °F 79% 30.30 in 10.0 mi WNW 5.8 mph - N/A   Scattered Clouds
5:55 AM 19.4 °F 11.5 °F 15.8 °F 86% 30.30 in 10.0 mi WNW 5.8 mph - N/A   Scattered Clouds
6:15 AM 23.4 °F 14.3 °F 19.0 °F 84% 30.31 in 10.0 mi WNW 8.1 mph - N/A   Mostly Cloudy
6:35 AM 25.5 °F 16.2 °F 20.1 °F 80% 30.32 in 10.0 mi WNW 9.2 mph - N/A   Overcast
6:55 AM 25.7 °F 16.4 °F 20.7 °F 81% 30.32 in 10.0 mi NW 9.2 mph - N/A   Overcast
7:15 AM 26.6 °F 17.5 °F 21.7 °F 82% 30.33 in 10.0 mi NW 9.2 mph - N/A   Overcast
7:35 AM 28.0 °F 20.0 °F 22.1 °F 78% 30.33 in 10.0 mi NW 8.1 mph - N/A   Overcast
7:55 AM 28.4 °F 20.4 °F 22.1 °F 77% 30.34 in 10.0 mi NW 8.1 mph - N/A   Overcast
8:15 AM 28.9 °F 21.9 °F 22.1 °F 76% 30.35 in 10.0 mi NW 6.9 mph - N/A   Overcast
8:35 AM 29.3 °F 23.2 °F 22.1 °F 75% 30.35 in 10.0 mi WNW 5.8 mph - N/A   Overcast
8:55 AM 29.1 °F 23.0 °F 22.5 °F 76% 30.37 in 10.0 mi WNW 5.8 mph - N/A   Overcast
9:15 AM 28.4 °F 22.2 °F 23.0 °F 80% 30.38 in 10.0 mi WNW 5.8 mph - N/A   Overcast
9:35 AM 29.3 °F 23.2 °F 22.8 °F 77% 30.39 in 10.0 mi WNW 5.8 mph - N/A   Overcast
9:55 AM 29.5 °F 22.5 °F 23.0 °F 77% 30.39 in 10.0 mi NW 6.9 mph - N/A   Overcast
10:15 AM 29.8 °F 23.9 °F 23.2 °F 76% 30.40 in 10.0 mi WNW 5.8 mph - N/A   Overcast
10:35 AM 30.2 °F 21.9 °F 23.4 °F 76% 30.40 in 10.0 mi NW 9.2 mph - N/A   Overcast
10:55 AM 30.6 °F 23.1 °F 23.4 °F 75% 30.40 in 10.0 mi NW 8.1 mph - N/A   Overcast
11:15 AM 30.0 °F 21.7 °F 23.4 °F 76% 30.40 in 10.0 mi North 9.2 mph - N/A   Overcast
11:35 AM 28.8 °F 20.2 °F 23.0 °F 79% 30.40 in 10.0 mi North 9.2 mph - N/A   Overcast
11:55 AM 28.8 °F 20.9 °F 22.6 °F 78% 30.39 in 10.0 mi North 8.1 mph - N/A   Overcast
12:15 PM 28.9 °F 22.8 °F 22.3 °F 76% 30.39 in 10.0 mi NNE 5.8 mph - N/A   Overcast
12:35 PM 29.7 °F 23.7 °F 22.5 °F 75% 30.39 in 10.0 mi North 5.8 mph - N/A   Overcast
12:55 PM 28.8 °F 20.9 °F 21.9 °F 76% 30.38 in 10.0 mi North 8.1 mph - N/A   Mostly Cloudy
1:15 PM 28.4 °F 22.2 °F 21.2 °F 74% 30.38 in 10.0 mi North 5.8 mph - N/A   Overcast
1:35 PM 29.8 °F 23.0 °F 20.3 °F 68% 30.37 in 10.0 mi NNW 6.9 mph - N/A   Overcast
1:55 PM 29.1 °F 24.1 °F 21.2 °F 72% 30.37 in 10.0 mi North 4.6 mph - N/A   Overcast
2:15 PM 29.3 °F 23.2 °F 20.5 °F 70% 30.37 in 10.0 mi North 5.8 mph - N/A   Overcast
2:35 PM 29.3 °F 21.5 °F 18.5 °F 64% 30.37 in 10.0 mi NNW 8.1 mph - N/A   Overcast
2:55 PM 29.3 °F 20.8 °F 17.6 °F 62% 30.37 in 10.0 mi NW 9.2 mph - N/A   Mostly Cloudy
3:15 PM 28.6 °F 22.4 °F 17.4 °F 63% 30.37 in 10.0 mi NNW 5.8 mph - N/A   Mostly Cloudy
3:35 PM 28.2 °F 20.2 °F 17.1 °F 63% 30.38 in 10.0 mi NW 8.1 mph - N/A   Scattered Clouds
3:55 PM 27.5 °F 18.6 °F 17.1 °F 65% 30.37 in 10.0 mi NW 9.2 mph - N/A   Clear
4:15 PM 26.6 °F 20.0 °F 16.7 °F 66% 30.37 in 10.0 mi NW 5.8 mph - N/A   Clear
4:35 PM 25.7 °F 21.5 °F 16.0 °F 67% 30.37 in 10.0 mi NW 3.5 mph - N/A   Clear
4:55 PM 24.8 °F 20.5 °F 15.3 °F 67% 30.37 in 10.0 mi NW 3.5 mph - N/A   Clear
5:15 PM 23.5 °F - 14.9 °F 70% 30.37 in 10.0 mi Calm Calm - N/A   Clear
5:35 PM 21.6 °F - 14.5 °F 74% 30.37 in 10.0 mi Calm Calm - N/A   Clear
5:55 PM 19.6 °F - 12.7 °F 75% 30.37 in 10.0 mi Calm Calm - N/A   Clear
6:15 PM 21.0 °F - 14.7 °F 77% 30.37 in 10.0 mi Calm Calm - N/A   Clear
6:35 PM 19.6 °F - 14.4 °F 80% 30.38 in 10.0 mi Calm Calm - N/A   Clear
6:55 PM 19.4 °F - 14.0 °F 80% 30.38 in 10.0 mi Calm Calm - N/A   Clear
7:15 PM 16.5 °F - 11.7 °F 81% 30.38 in 10.0 mi Calm Calm - N/A   Clear
7:35 PM 15.4 °F - 10.9 °F 82% 30.38 in 10.0 mi Calm Calm - N/A   Clear
7:55 PM 15.4 °F - 10.9 °F 82% 30.38 in 7.0 mi Calm Calm - N/A   Clear
8:15 PM 15.3 °F - 12.0 °F 87% 30.37 in 7.0 mi Calm Calm - N/A   Clear
8:35 PM 13.6 °F - 10.0 °F 86% 30.37 in 10.0 mi Calm Calm - N/A   Clear
8:55 PM 13.6 °F 7.7 °F 9.3 °F 83% 30.36 in 10.0 mi South 3.5 mph - N/A   Clear
9:15 PM 12.6 °F 4.8 °F 8.4 °F 83% 30.36 in 10.0 mi SSW 4.6 mph - N/A   Clear
9:35 PM 13.3 °F 3.0 °F 9.1 °F 84% 30.35 in 10.0 mi South 6.9 mph - N/A   Clear
9:55 PM 13.6 °F 1.6 °F 9.7 °F 84% 30.35 in 10.0 mi South 9.2 mph - N/A   Clear
10:15 PM 15.4 °F 4.6 °F 11.5 °F 84% 30.34 in 10.0 mi South 8.1 mph - N/A   Clear
10:35 PM 15.1 °F 6.4 °F 10.9 °F 84% 30.34 in 10.0 mi South 5.8 mph - N/A   Clear
10:55 PM 15.3 °F 7.9 °F 11.3 °F 84% 30.34 in 10.0 mi SSW 4.6 mph - N/A   Clear
11:15 PM 14.9 °F - 11.3 °F 86% 30.34 in 10.0 mi Calm Calm - N/A   Clear
11:35 PM 10.6 °F - 6.8 °F 85% 30.35 in 7.0 mi Calm Calm - N/A   Clear
11:55 PM 10.9 °F - 6.4 °F 82% 30.34 in 10.0 mi Calm Calm - N/A   Clear